createdAt,value
2016-12-19T00:00:53.948Z,4.49
2016-12-19T00:02:03.769Z,4.47
2016-12-19T00:03:13.599Z,4.55
2016-12-19T00:04:23.086Z,4.53
2016-12-19T00:05:32.892Z,4.56
2016-12-19T00:06:42.828Z,4.55
2016-12-19T00:07:52.006Z,4.52
2016-12-19T00:09:01.869Z,4.55
2016-12-19T00:10:11.679Z,4.43
2016-12-19T00:11:21.462Z,4.41
2016-12-19T00:12:31.244Z,4.43
2016-12-19T00:13:41.058Z,4.5
2016-12-19T00:14:50.226Z,4.52
2016-12-19T00:15:59.390Z,4.53
2016-12-19T00:17:09.207Z,4.55
2016-12-19T00:18:18.757Z,4.52
2016-12-19T00:19:28.413Z,4.49
2016-12-19T00:20:37.895Z,4.52
2016-12-19T00:21:47.869Z,4.49
2016-12-19T00:22:57.663Z,4.5
2016-12-19T00:24:06.862Z,4.56
2016-12-19T00:25:16.339Z,4.6
2016-12-19T00:26:26.127Z,4.47
2016-12-19T00:27:35.919Z,4.56
2016-12-19T00:28:45.733Z,4.55
2016-12-19T00:29:55.516Z,4.6
2016-12-19T00:31:05.007Z,4.46
2016-12-19T00:32:14.507Z,4.38
2016-12-19T00:33:24.335Z,4.38
2016-12-19T00:34:34.110Z,4.37
2016-12-19T00:35:42.960Z,4.34
2016-12-19T00:36:52.524Z,4.27
2016-12-19T00:38:01.708Z,4.3
2016-12-19T00:39:11.193Z,4.28
2016-12-19T00:40:20.784Z,4.31
2016-12-19T00:41:30.265Z,4.33
2016-12-19T00:42:39.585Z,4.31
2016-12-19T00:43:49.374Z,4.3
2016-12-19T00:44:58.248Z,4.25
2016-12-19T00:46:07.558Z,4.27
2016-12-19T00:47:17.151Z,4.27
2016-12-19T00:48:26.963Z,4.19
2016-12-19T00:49:36.448Z,4.27
2016-12-19T00:50:45.946Z,4.3
2016-12-19T00:51:55.531Z,4.33
2016-12-19T00:53:04.705Z,4.3
2016-12-19T00:54:14.511Z,4.31
2016-12-19T00:55:24.315Z,4.38
2016-12-19T00:56:33.478Z,4.36
2016-12-19T00:57:43.258Z,4.46
2016-12-19T00:58:53.042Z,4.34
2016-12-19T01:00:02.853Z,4.43
2016-12-19T01:01:12.389Z,4.36
2016-12-19T01:02:22.197Z,4.43
2016-12-19T01:03:31.799Z,4.41
2016-12-19T01:04:41.627Z,4.46
2016-12-19T01:05:51.646Z,4.49
2016-12-19T01:07:01.426Z,4.43
2016-12-19T01:08:10.745Z,4.55
2016-12-19T01:09:20.258Z,4.52
2016-12-19T01:10:29.753Z,4.55
2016-12-19T01:11:39.253Z,4.53
2016-12-19T01:12:48.733Z,4.55
2016-12-19T01:13:58.234Z,4.53
2016-12-19T01:15:08.025Z,4.55
2016-12-19T01:16:17.220Z,4.5
2016-12-19T01:17:26.695Z,4.53
2016-12-19T01:18:36.181Z,4.55
2016-12-19T01:19:46.092Z,4.52
2016-12-19T01:20:55.908Z,4.5
2016-12-19T01:22:05.715Z,4.41
2016-12-19T01:23:15.504Z,4.46
2016-12-19T01:24:25.295Z,4.5
2016-12-19T01:25:34.783Z,4.59
2016-12-19T01:26:44.688Z,4.55
2016-12-19T01:27:54.544Z,4.56
2016-12-19T01:29:04.022Z,4.5
2016-12-19T01:30:13.845Z,4.5
2016-12-19T01:31:23.321Z,4.56
2016-12-19T01:32:33.116Z,4.53
2016-12-19T01:33:42.321Z,4.53
2016-12-19T01:34:52.151Z,4.62
2016-12-19T01:36:02.027Z,4.53
2016-12-19T01:37:11.526Z,4.53
2016-12-19T01:38:21.324Z,4.52
2016-12-19T01:39:30.811Z,4.56
2016-12-19T01:40:40.628Z,4.55
2016-12-19T01:41:50.394Z,4.65
2016-12-19T01:42:59.870Z,4.71
2016-12-19T01:44:09.653Z,4.63
2016-12-19T01:45:19.450Z,4.62
2016-12-19T01:46:29.265Z,4.63
2016-12-19T01:47:38.524Z,4.65
2016-12-19T01:48:48.317Z,4.6
2016-12-19T01:49:58.140Z,4.53
2016-12-19T01:51:07.635Z,4.5
2016-12-19T01:52:17.110Z,4.41
2016-12-19T01:53:26.923Z,4.43
2016-12-19T01:54:36.534Z,4.37
2016-12-19T01:55:46.053Z,4.36
2016-12-19T01:56:56.004Z,4.46
2016-12-19T01:58:05.793Z,4.4
2016-12-19T01:59:15.449Z,4.38
2016-12-19T02:00:25.272Z,4.41
2016-12-19T02:01:35.164Z,4.4
2016-12-19T02:02:44.959Z,4.41
2016-12-19T02:03:54.441Z,4.41
2016-12-19T02:05:04.220Z,4.43
2016-12-19T02:06:13.805Z,4.41
2016-12-19T02:07:23.580Z,4.43
2016-12-19T02:08:33.051Z,4.4
2016-12-19T02:09:42.834Z,4.43
2016-12-19T02:10:52.619Z,4.36
2016-12-19T02:12:02.086Z,4.36
2016-12-19T02:13:11.919Z,4.43
2016-12-19T02:14:21.806Z,4.41
2016-12-19T02:15:31.647Z,4.38
2016-12-19T02:16:41.487Z,4.36
2016-12-19T02:17:51.257Z,4.47
2016-12-19T02:19:01.067Z,4.46
2016-12-19T02:20:10.553Z,4.38
2016-12-19T02:21:20.351Z,4.36
2016-12-19T02:22:30.212Z,4.46
2016-12-19T02:23:39.685Z,4.38
2016-12-19T02:24:49.165Z,4.41
2016-12-19T02:25:58.968Z,4.4
2016-12-19T02:27:08.908Z,4.46
2016-12-19T02:28:18.125Z,4.43
2016-12-19T02:29:27.953Z,4.4
2016-12-19T02:30:37.431Z,4.4
2016-12-19T02:31:47.209Z,4.43
2016-12-19T02:32:56.983Z,4.43
2016-12-19T02:34:06.841Z,4.4
2016-12-19T02:35:16.698Z,4.41
2016-12-19T02:36:26.521Z,4.38
2016-12-19T02:37:36.006Z,4.43
2016-12-19T02:38:45.520Z,4.4
2016-12-19T02:39:55.449Z,4.4
2016-12-19T02:41:04.939Z,4.46
2016-12-19T02:42:14.726Z,4.37
2016-12-19T02:43:24.534Z,4.27
2016-12-19T02:44:33.717Z,4.34
2016-12-19T02:45:43.220Z,4.27
2016-12-19T02:46:52.717Z,4.31
2016-12-19T02:48:01.997Z,4.34
2016-12-19T02:49:11.777Z,4.28
2016-12-19T02:50:21.587Z,4.33
2016-12-19T02:51:31.389Z,4.33
2016-12-19T02:52:40.868Z,4.4
2016-12-19T02:53:50.387Z,4.38
2016-12-19T02:54:59.863Z,4.47
2016-12-19T02:56:09.648Z,4.4
2016-12-19T02:57:19.429Z,4.4
2016-12-19T02:58:29.211Z,4.4
2016-12-19T02:59:39.020Z,4.4
2016-12-19T03:00:48.811Z,4.46
2016-12-19T03:01:58.338Z,4.4
2016-12-19T03:03:07.835Z,4.43
2016-12-19T03:04:17.320Z,4.41
2016-12-19T03:05:27.129Z,4.53
2016-12-19T03:06:36.597Z,4.49
2016-12-19T03:07:45.831Z,4.43
2016-12-19T03:08:55.638Z,4.47
2016-12-19T03:10:05.450Z,4.49
2016-12-19T03:11:14.955Z,4.46
2016-12-19T03:12:24.461Z,4.41
2016-12-19T03:13:34.024Z,4.41
2016-12-19T03:14:43.859Z,4.43
2016-12-19T03:15:53.479Z,4.4
2016-12-19T03:17:02.990Z,4.41
2016-12-19T03:18:12.795Z,4.43
2016-12-19T03:19:22.291Z,4.46
2016-12-19T03:20:31.461Z,4.38
2016-12-19T03:21:40.967Z,4.31
2016-12-19T03:22:50.906Z,4.43
2016-12-19T03:24:00.692Z,4.34
2016-12-19T03:25:10.565Z,4.36
2016-12-19T03:26:20.389Z,4.34
2016-12-19T03:27:30.204Z,4.2
2016-12-19T03:28:39.686Z,4.23
2016-12-19T03:29:49.549Z,4.27
2016-12-19T03:30:59.376Z,4.28
2016-12-19T03:32:09.218Z,4.28
2016-12-19T03:33:19.049Z,4.36
2016-12-19T03:34:28.862Z,4.33
2016-12-19T03:35:38.466Z,4.41
2016-12-19T03:36:47.956Z,4.28
2016-12-19T03:37:57.436Z,4.41
2016-12-19T03:39:07.235Z,4.4
2016-12-19T03:40:16.779Z,4.41
2016-12-19T03:41:25.989Z,4.4
2016-12-19T03:42:35.459Z,4.38
2016-12-19T03:43:44.965Z,4.38
2016-12-19T03:44:54.769Z,4.41
2016-12-19T03:46:04.293Z,4.4
2016-12-19T03:47:14.316Z,4.41
2016-12-19T03:48:24.094Z,4.37
2016-12-19T03:49:33.636Z,4.3
2016-12-19T03:50:43.451Z,4.28
2016-12-19T03:51:53.231Z,4.34
2016-12-19T03:53:03.155Z,4.28
2016-12-19T03:54:12.975Z,4.27
2016-12-19T03:55:22.762Z,4.34
2016-12-19T03:56:32.251Z,4.31
2016-12-19T03:57:42.040Z,4.31
2016-12-19T03:58:51.542Z,4.34
2016-12-19T04:00:01.073Z,4.37
2016-12-19T04:01:10.887Z,4.31
2016-12-19T04:02:20.738Z,4.23
2016-12-19T04:03:30.602Z,4.28
2016-12-19T04:04:40.402Z,4.34
2016-12-19T04:05:50.291Z,4.31
2016-12-19T04:07:00.087Z,4.31
2016-12-19T04:08:09.887Z,4.27
2016-12-19T04:09:19.373Z,4.25
2016-12-19T04:10:29.210Z,4.3
2016-12-19T04:11:39.019Z,4.3
2016-12-19T04:12:48.198Z,4.27
2016-12-19T04:13:57.983Z,4.27
2016-12-19T04:15:07.792Z,4.3
2016-12-19T04:16:17.351Z,4.3
2016-12-19T04:17:27.166Z,4.34
2016-12-19T04:18:36.698Z,4.37
2016-12-19T04:19:46.567Z,4.3
2016-12-19T04:20:56.114Z,4.23
2016-12-19T04:22:05.629Z,4.19
2016-12-19T04:23:15.534Z,4.13
2016-12-19T04:24:25.010Z,4.18
2016-12-19T04:25:34.520Z,4.11
2016-12-19T04:26:43.995Z,4.13
2016-12-19T04:27:53.475Z,4.2
2016-12-19T04:29:03.039Z,4.23
2016-12-19T04:30:12.869Z,4.18
2016-12-19T04:31:22.341Z,4.27
2016-12-19T04:32:32.168Z,4.2
2016-12-19T04:33:41.640Z,4.25
2016-12-19T04:34:51.430Z,4.28
2016-12-19T04:36:01.244Z,4.33
2016-12-19T04:37:10.461Z,4.34
2016-12-19T04:38:20.039Z,4.31
2016-12-19T04:39:29.856Z,4.28
2016-12-19T04:40:39.325Z,4.22
2016-12-19T04:41:48.805Z,4.38
2016-12-19T04:42:58.777Z,4.23
2016-12-19T04:44:08.590Z,4.22
2016-12-19T04:45:18.398Z,4.22
2016-12-19T04:46:27.874Z,4.2
2016-12-19T04:47:37.727Z,4.23
2016-12-19T04:49:19.329Z,4.28
2016-12-19T04:50:29.314Z,4.25
2016-12-19T04:51:38.484Z,4.18
2016-12-19T04:52:47.996Z,4.19
2016-12-19T04:53:57.186Z,4.2
2016-12-19T04:55:06.655Z,4.2
2016-12-19T04:56:16.139Z,4.28
2016-12-19T04:57:25.617Z,4.23
2016-12-19T04:58:35.447Z,4.25
2016-12-19T04:59:44.644Z,4.23
2016-12-19T05:00:54.428Z,4.22
2016-12-19T05:02:04.211Z,4.12
2016-12-19T05:03:13.743Z,3.98
2016-12-19T05:04:23.309Z,4
2016-12-19T05:05:32.476Z,4
2016-12-19T05:06:42.268Z,3.9
2016-12-19T05:07:52.140Z,3.94
2016-12-19T05:09:33.777Z,3.87
2016-12-19T05:10:43.302Z,3.83
2016-12-19T05:11:52.481Z,3.94
2016-12-19T05:13:01.966Z,3.87
2016-12-19T05:14:11.441Z,3.82
2016-12-19T05:15:20.635Z,3.87
2016-12-19T05:16:30.143Z,3.85
2016-12-19T05:17:39.410Z,3.94
2016-12-19T05:18:48.909Z,3.85
2016-12-19T05:19:58.746Z,3.85
2016-12-19T05:21:07.927Z,3.86
2016-12-19T05:22:17.087Z,3.86
2016-12-19T05:23:26.909Z,3.93
2016-12-19T05:24:36.389Z,3.85
2016-12-19T05:25:46.170Z,3.91
2016-12-19T05:26:55.949Z,3.94
2016-12-19T05:28:05.753Z,3.94
2016-12-19T05:29:15.570Z,3.93
2016-12-19T05:30:25.373Z,3.95
2016-12-19T05:31:34.867Z,3.98
2016-12-19T05:32:44.691Z,3.97
2016-12-19T05:33:54.163Z,4.05
2016-12-19T05:35:04.120Z,3.95
2016-12-19T05:36:13.591Z,4.03
2016-12-19T05:37:23.136Z,3.98
2016-12-19T05:38:32.924Z,3.98
2016-12-19T05:40:13.916Z,3.91
2016-12-19T05:41:23.399Z,3.85
2016-12-19T05:42:32.886Z,3.87
2016-12-19T05:43:42.507Z,3.87
2016-12-19T05:44:52.023Z,3.91
2016-12-19T05:46:01.884Z,3.87
2016-12-19T05:47:11.722Z,3.85
2016-12-19T05:48:21.504Z,3.85
2016-12-19T05:49:31.283Z,3.86
2016-12-19T05:50:40.904Z,3.9
2016-12-19T05:51:50.403Z,3.91
2016-12-19T05:52:59.859Z,3.82
2016-12-19T05:54:09.857Z,3.87
2016-12-19T05:55:19.379Z,3.82
2016-12-19T05:56:29.228Z,3.85
2016-12-19T05:57:39.147Z,3.79
2016-12-19T05:58:48.953Z,3.83
2016-12-19T05:59:58.440Z,3.86
2016-12-19T06:01:07.614Z,3.82
2016-12-19T06:02:17.251Z,3.76
2016-12-19T06:03:27.064Z,3.87
2016-12-19T06:04:36.259Z,3.86
2016-12-19T06:05:46.058Z,3.87
2016-12-19T06:06:55.541Z,3.85
2016-12-19T06:08:05.051Z,3.79
2016-12-19T06:09:14.878Z,3.75
2016-12-19T06:10:24.395Z,3.8
2016-12-19T06:11:33.875Z,3.82
2016-12-19T06:12:43.362Z,3.86
2016-12-19T06:13:53.185Z,3.72
2016-12-19T06:15:02.343Z,3.73
2016-12-19T06:16:11.502Z,3.59
2016-12-19T06:17:21.290Z,3.64
2016-12-19T06:18:30.756Z,3.62
2016-12-19T06:19:40.279Z,3.59
2016-12-19T06:20:50.116Z,3.49
2016-12-19T06:22:00.073Z,3.55
2016-12-19T06:23:09.891Z,3.54
2016-12-19T06:24:19.709Z,3.57
2016-12-19T06:25:29.189Z,3.59
2016-12-19T06:26:38.979Z,3.61
2016-12-19T06:27:48.768Z,3.72
2016-12-19T06:28:58.552Z,3.58
2016-12-19T06:30:08.041Z,3.59
2016-12-19T06:31:17.511Z,3.57
2016-12-19T06:32:26.372Z,3.58
2016-12-19T06:33:35.864Z,3.5
2016-12-19T06:34:45.502Z,3.49
2016-12-19T06:35:55.474Z,3.5
2016-12-19T06:37:04.980Z,3.5
2016-12-19T06:38:14.781Z,3.46
2016-12-19T06:39:24.571Z,3.37
2016-12-19T06:40:34.361Z,3.34
2016-12-19T06:41:43.831Z,3.44
2016-12-19T06:42:53.305Z,3.4
2016-12-19T06:44:03.111Z,3.37
2016-12-19T06:45:12.595Z,3.37
2016-12-19T06:46:22.120Z,3.43
2016-12-19T06:47:31.908Z,3.36
2016-12-19T06:48:41.389Z,3.42
2016-12-19T06:49:51.203Z,3.39
2016-12-19T06:51:00.760Z,3.42
2016-12-19T06:52:10.250Z,3.4
2016-12-19T06:53:20.272Z,3.37
2016-12-19T06:54:29.745Z,3.37
2016-12-19T06:55:39.540Z,3.4
2016-12-19T06:56:49.014Z,3.4
2016-12-19T06:57:58.577Z,3.36
2016-12-19T06:59:08.414Z,3.29
2016-12-19T07:00:18.205Z,3.36
2016-12-19T07:01:27.985Z,3.31
2016-12-19T07:02:37.460Z,3.42
2016-12-19T07:03:47.270Z,3.37
2016-12-19T07:04:57.153Z,3.37
2016-12-19T07:06:06.621Z,3.4
2016-12-19T07:07:16.178Z,3.39
2016-12-19T07:08:25.672Z,3.47
2016-12-19T07:09:34.863Z,3.54
2016-12-19T07:10:44.649Z,3.59
2016-12-19T07:11:54.434Z,3.57
2016-12-19T07:13:04.091Z,3.62
2016-12-19T07:14:13.587Z,3.5
2016-12-19T07:15:23.369Z,3.54
2016-12-19T07:16:32.845Z,3.5
2016-12-19T07:17:42.354Z,3.5
2016-12-19T07:18:52.146Z,3.42
2016-12-19T07:20:01.662Z,3.42
2016-12-19T07:21:11.137Z,3.46
2016-12-19T07:22:20.333Z,3.42
2016-12-19T07:23:29.826Z,3.34
2016-12-19T07:24:39.610Z,3.25
2016-12-19T07:25:49.086Z,3.29
2016-12-19T07:26:58.980Z,3.28
2016-12-19T07:28:08.829Z,3.29
2016-12-19T07:29:18.618Z,3.37
2016-12-19T07:30:28.107Z,3.43
2016-12-19T07:31:37.883Z,3.49
2016-12-19T07:32:47.664Z,3.4
2016-12-19T07:33:57.513Z,3.47
2016-12-19T07:35:07.000Z,3.49
2016-12-19T07:36:16.484Z,3.5
2016-12-19T07:37:26.008Z,3.57
2016-12-19T07:38:35.852Z,3.54
2016-12-19T07:39:45.662Z,3.58
2016-12-19T07:40:55.450Z,3.54
2016-12-19T07:42:04.955Z,3.59
2016-12-19T07:43:14.418Z,3.57
2016-12-19T07:44:23.627Z,3.57
2016-12-19T07:45:33.126Z,3.54
2016-12-19T07:46:42.936Z,3.52
2016-12-19T07:47:52.723Z,3.54
2016-12-19T07:49:02.236Z,3.58
2016-12-19T07:50:12.113Z,3.49
2016-12-19T07:51:21.600Z,3.52
2016-12-19T07:52:31.608Z,3.49
2016-12-19T07:53:40.810Z,3.47
2016-12-19T07:54:50.632Z,3.49
2016-12-19T07:56:00.176Z,3.55
2016-12-19T07:57:09.994Z,3.4
2016-12-19T07:58:19.208Z,3.42
2016-12-19T07:59:28.681Z,3.36
2016-12-19T08:00:38.497Z,3.39
2016-12-19T08:01:48.445Z,3.4
2016-12-19T08:02:58.253Z,3.31
2016-12-19T08:04:07.462Z,3.25
2016-12-19T08:05:16.990Z,3.24
2016-12-19T08:06:26.823Z,3.28
2016-12-19T08:07:36.339Z,3.24
2016-12-19T08:08:46.147Z,3.29
2016-12-19T08:09:55.627Z,3.36
2016-12-19T08:11:05.480Z,3.42
2016-12-19T08:12:14.967Z,3.42
2016-12-19T08:13:24.751Z,3.44
2016-12-19T08:14:34.583Z,3.39
2016-12-19T08:15:44.085Z,3.4
2016-12-19T08:16:53.959Z,3.4
2016-12-19T08:18:03.754Z,3.5
2016-12-19T08:19:13.368Z,3.52
2016-12-19T08:20:23.248Z,3.61
2016-12-19T08:21:32.507Z,3.64
2016-12-19T08:22:42.018Z,3.72
2016-12-19T08:23:51.859Z,3.69
2016-12-19T08:25:01.656Z,3.77
2016-12-19T08:26:11.448Z,3.83
2016-12-19T08:27:21.253Z,3.82
2016-12-19T08:28:30.728Z,3.86
2016-12-19T08:29:40.525Z,3.86
2016-12-19T08:30:50.338Z,3.9
2016-12-19T08:31:59.501Z,3.93
2016-12-19T08:33:09.046Z,4.04
2016-12-19T08:34:18.240Z,4.15
2016-12-19T08:35:27.114Z,4.19
2016-12-19T08:36:36.595Z,4.2
2016-12-19T08:37:46.415Z,4.2
2016-12-19T08:38:56.191Z,4.33
2016-12-19T08:40:05.682Z,4.43
2016-12-19T08:41:15.471Z,4.52
2016-12-19T08:42:25.278Z,4.47
2016-12-19T08:43:35.068Z,4.7
2016-12-19T08:44:44.952Z,4.73
2016-12-19T08:45:54.430Z,4.73
2016-12-19T08:47:04.243Z,4.73
2016-12-19T08:48:13.741Z,4.88
2016-12-19T08:49:23.578Z,4.96
2016-12-19T08:50:33.058Z,4.9
2016-12-19T08:51:42.652Z,4.95
2016-12-19T08:52:52.132Z,5.04
2016-12-19T08:54:01.933Z,5.11
2016-12-19T08:55:11.725Z,5.21
2016-12-19T08:56:21.427Z,5.16
2016-12-19T08:57:31.219Z,5.29
2016-12-19T08:58:41.034Z,5.22
2016-12-19T08:59:50.873Z,5.24
2016-12-19T09:01:00.417Z,5.24
2016-12-19T09:02:09.966Z,5.18
2016-12-19T09:03:19.448Z,5.21
2016-12-19T09:04:29.256Z,5.31
2016-12-19T09:05:39.042Z,5.21
2016-12-19T09:06:48.822Z,5.31
2016-12-19T09:07:58.347Z,5.33
2016-12-19T09:09:07.883Z,5.41
2016-12-19T09:10:17.728Z,5.47
2016-12-19T09:11:27.213Z,5.53
2016-12-19T09:12:36.744Z,5.69
2016-12-19T09:13:46.541Z,5.71
2016-12-19T09:14:56.173Z,5.67
2016-12-19T09:16:05.635Z,5.74
2016-12-19T09:17:15.115Z,5.68
2016-12-19T09:18:24.624Z,5.56
2016-12-19T09:19:34.418Z,5.54
2016-12-19T09:20:44.239Z,5.59
2016-12-19T09:21:54.044Z,5.65
2016-12-19T09:23:03.534Z,5.71
2016-12-19T09:24:13.036Z,5.72
2016-12-19T09:25:22.646Z,5.82
2016-12-19T09:26:32.449Z,5.72
2016-12-19T09:27:41.939Z,5.74
2016-12-19T09:28:51.730Z,5.71
2016-12-19T09:30:01.206Z,5.67
2016-12-19T09:31:10.705Z,5.54
2016-12-19T09:32:19.872Z,5.68
2016-12-19T09:33:29.660Z,5.68
2016-12-19T09:34:38.591Z,5.69
2016-12-19T09:35:48.076Z,5.68
2016-12-19T09:36:57.566Z,5.65
2016-12-19T09:38:07.349Z,5.67
2016-12-19T09:39:17.183Z,5.59
2016-12-19T09:40:26.685Z,5.49
2016-12-19T09:41:36.247Z,5.4
2016-12-19T09:42:45.745Z,5.29
2016-12-19T09:43:55.533Z,5.35
2016-12-19T09:45:05.021Z,5.22
2016-12-19T09:46:14.516Z,5.16
2016-12-19T09:47:24.012Z,5.1
2016-12-19T09:48:33.217Z,4.99
2016-12-19T09:49:43.031Z,4.93
2016-12-19T09:50:52.810Z,4.86
2016-12-19T09:52:02.376Z,4.67
2016-12-19T09:53:11.547Z,4.63
2016-12-19T09:54:21.584Z,4.65
2016-12-19T09:55:31.216Z,4.59
2016-12-19T09:56:41.013Z,4.57
2016-12-19T09:57:50.849Z,4.78
2016-12-19T09:59:00.654Z,4.85
2016-12-19T10:00:10.448Z,4.9
2016-12-19T10:01:20.252Z,5.03
2016-12-19T10:02:29.752Z,5.14
2016-12-19T10:03:39.562Z,5.25
2016-12-19T10:04:49.034Z,5.33
2016-12-19T10:05:58.703Z,5.4
2016-12-19T10:07:08.177Z,5.46
2016-12-19T10:08:17.691Z,5.49
2016-12-19T10:09:27.496Z,5.58
2016-12-19T10:10:37.295Z,5.62
2016-12-19T10:11:47.096Z,5.54
2016-12-19T10:12:56.904Z,5.54
2016-12-19T10:14:06.697Z,5.51
2016-12-19T10:15:16.521Z,5.5
2016-12-19T10:16:26.299Z,5.44
2016-12-19T10:17:36.115Z,5.38
2016-12-19T10:18:46.039Z,5.38
2016-12-19T10:19:55.840Z,5.41
2016-12-19T10:21:05.681Z,5.43
2016-12-19T10:22:15.188Z,5.43
2016-12-19T10:23:25.032Z,5.53
2016-12-19T10:24:34.528Z,5.59
2016-12-19T10:25:44.018Z,5.56
2016-12-19T10:26:53.536Z,5.58
2016-12-19T10:28:03.330Z,5.51
2016-12-19T10:29:12.856Z,5.49
2016-12-19T10:30:22.697Z,5.5
2016-12-19T10:31:32.569Z,5.51
2016-12-19T10:32:42.566Z,5.58
2016-12-19T10:33:52.064Z,5.58
2016-12-19T10:35:01.622Z,5.67
2016-12-19T10:36:11.439Z,5.71
2016-12-19T10:37:20.628Z,5.77
2016-12-19T10:38:30.127Z,5.84
2016-12-19T10:39:39.667Z,5.8
2016-12-19T10:40:48.932Z,5.94
2016-12-19T10:41:58.742Z,5.9
2016-12-19T10:43:08.537Z,5.98
2016-12-19T10:44:18.059Z,6.02
2016-12-19T10:45:27.297Z,6.14
2016-12-19T10:46:36.538Z,6.16
2016-12-19T10:47:46.346Z,6.34
2016-12-19T10:48:55.514Z,6.26
2016-12-19T10:50:05.414Z,6.26
2016-12-19T10:51:15.213Z,6.14
2016-12-19T10:52:24.156Z,6.16
2016-12-19T10:53:33.644Z,6.16
2016-12-19T10:54:43.517Z,6.09
2016-12-19T10:55:53.307Z,6.08
2016-12-19T10:57:03.098Z,6.03
2016-12-19T10:58:12.287Z,6.08
2016-12-19T10:59:22.135Z,6.09
2016-12-19T11:00:31.637Z,6.14
2016-12-19T11:01:41.148Z,6.23
2016-12-19T11:02:50.646Z,6.3
2016-12-19T11:04:00.154Z,6.45
2016-12-19T11:05:10.038Z,6.53
2016-12-19T11:06:19.862Z,6.48
2016-12-19T11:07:29.692Z,6.48
2016-12-19T11:08:38.873Z,6.48
2016-12-19T11:09:48.176Z,6.54
2016-12-19T11:10:58.018Z,6.48
2016-12-19T11:12:07.595Z,6.57
2016-12-19T11:13:17.076Z,6.42
2016-12-19T11:14:26.577Z,6.42
2016-12-19T11:15:36.274Z,6.48
2016-12-19T11:16:46.191Z,6.44
2016-12-19T11:17:55.677Z,6.31
2016-12-19T11:19:05.182Z,6.34
2016-12-19T11:20:14.450Z,6.28
2016-12-19T11:21:24.286Z,6.26
2016-12-19T11:22:34.133Z,6.17
2016-12-19T11:23:43.966Z,6.08
2016-12-19T11:24:53.038Z,6.05
2016-12-19T11:26:02.869Z,5.86
2016-12-19T11:27:12.828Z,5.9
2016-12-19T11:28:22.640Z,5.77
2016-12-19T11:29:32.117Z,5.93
2016-12-19T11:30:41.905Z,5.77
2016-12-19T11:31:51.928Z,5.93
2016-12-19T11:33:01.101Z,5.86
2016-12-19T11:34:10.928Z,5.69
2016-12-19T11:35:20.734Z,5.65
2016-12-19T11:36:29.730Z,5.59
2016-12-19T11:37:39.516Z,5.5
2016-12-19T11:38:49.017Z,5.43
2016-12-19T11:39:58.844Z,5.44
2016-12-19T11:41:08.641Z,5.41
2016-12-19T11:42:17.888Z,5.32
2016-12-19T11:43:27.078Z,5.31
2016-12-19T11:44:37.010Z,5.22
2016-12-19T11:45:46.835Z,5.29
2016-12-19T11:46:56.657Z,5.17
2016-12-19T11:48:06.413Z,5.16
2016-12-19T11:49:15.937Z,5.16
2016-12-19T11:50:25.447Z,5.1
2016-12-19T11:51:35.264Z,5.08
2016-12-19T11:52:45.040Z,5.04
2016-12-19T11:53:54.215Z,4.98
2016-12-19T11:55:04.049Z,4.93
2016-12-19T11:56:13.952Z,4.83
2016-12-19T11:57:23.481Z,4.81
2016-12-19T11:58:33.350Z,4.77
2016-12-19T11:59:42.853Z,4.81
2016-12-19T12:00:52.357Z,4.78
2016-12-19T12:02:01.838Z,4.81
2016-12-19T12:03:11.632Z,4.85
2016-12-19T12:04:21.485Z,4.81
2016-12-19T12:05:31.389Z,4.78
2016-12-19T12:06:41.201Z,4.81
2016-12-19T12:07:51.066Z,4.77
2016-12-19T12:09:00.875Z,4.81
2016-12-19T12:10:10.387Z,4.88
2016-12-19T12:11:20.236Z,4.68
2016-12-19T12:12:29.904Z,4.67
2016-12-19T12:13:39.758Z,4.74
2016-12-19T12:14:49.277Z,4.7
2016-12-19T12:15:59.068Z,4.68
2016-12-19T12:17:08.940Z,4.7
2016-12-19T12:18:18.763Z,4.55
2016-12-19T12:19:27.650Z,4.57
2016-12-19T12:20:37.489Z,4.59
2016-12-19T12:21:46.668Z,4.56
2016-12-19T12:22:56.234Z,4.56
2016-12-19T12:24:06.059Z,4.53
2016-12-19T12:25:15.550Z,4.55
2016-12-19T12:26:25.347Z,4.49
2016-12-19T12:27:35.357Z,4.49
2016-12-19T12:28:44.854Z,4.47
2016-12-19T12:29:54.104Z,4.46
2016-12-19T12:31:03.341Z,4.4
2016-12-19T12:32:13.137Z,4.46
2016-12-19T12:33:22.960Z,4.41
2016-12-19T12:34:32.517Z,4.41
2016-12-19T12:35:41.714Z,4.4
2016-12-19T12:36:51.194Z,4.43
2016-12-19T12:38:00.677Z,4.43
2016-12-19T12:39:10.190Z,4.41
2016-12-19T12:40:20.044Z,4.43
2016-12-19T12:41:29.513Z,4.41
2016-12-19T12:42:38.695Z,4.41
2016-12-19T12:43:48.202Z,4.52
2016-12-19T12:44:58.028Z,4.53
2016-12-19T12:46:07.990Z,4.67
2016-12-19T12:47:17.159Z,4.65
2016-12-19T12:48:27.045Z,4.53
2016-12-19T12:49:36.824Z,4.73
2016-12-19T12:50:46.627Z,4.59
2016-12-19T12:51:56.136Z,4.55
2016-12-19T12:53:05.925Z,4.7
2016-12-19T12:54:14.803Z,4.62
2016-12-19T12:55:24.320Z,4.5
2016-12-19T12:56:34.129Z,4.55
2016-12-19T12:57:43.918Z,4.56
2016-12-19T12:58:53.733Z,4.56
2016-12-19T13:00:03.269Z,4.63
2016-12-19T13:01:13.080Z,4.67
2016-12-19T13:02:22.865Z,4.67
2016-12-19T13:03:32.695Z,4.6
2016-12-19T13:04:42.173Z,4.68
2016-12-19T13:05:51.730Z,4.63
2016-12-19T13:07:01.217Z,4.68
2016-12-19T13:08:10.794Z,4.55
2016-12-19T13:09:20.596Z,4.6
2016-12-19T13:10:30.381Z,4.57
2016-12-19T13:11:39.547Z,4.56
2016-12-19T13:12:49.490Z,4.52
2016-12-19T13:13:58.980Z,4.52
2016-12-19T13:15:08.498Z,4.55
2016-12-19T13:16:18.006Z,4.49
2016-12-19T13:17:27.857Z,4.49
2016-12-19T13:18:37.695Z,4.46
2016-12-19T13:19:47.207Z,4.43
2016-12-19T13:20:56.999Z,4.43
2016-12-19T13:22:06.864Z,4.47
2016-12-19T13:23:16.350Z,4.53
2016-12-19T13:24:26.212Z,4.53
2016-12-19T13:25:36.007Z,4.53
2016-12-19T13:26:45.823Z,4.55
2016-12-19T13:27:55.326Z,4.55
2016-12-19T13:29:04.915Z,4.53
2016-12-19T13:30:14.793Z,4.53
2016-12-19T13:31:24.287Z,4.53
2016-12-19T13:32:33.804Z,4.47
2016-12-19T13:33:43.653Z,4.43
2016-12-19T13:34:53.456Z,4.4
2016-12-19T13:36:03.263Z,4.4
2016-12-19T13:37:12.755Z,4.46
2016-12-19T13:38:22.511Z,4.34
2016-12-19T13:39:32.119Z,4.3
2016-12-19T13:40:41.660Z,4.28
2016-12-19T13:41:51.154Z,4.38
2016-12-19T13:43:00.975Z,4.3
2016-12-19T13:44:10.469Z,4.33
2016-12-19T13:45:20.307Z,4.34
2016-12-19T13:46:32.353Z,4.22
2016-12-19T13:47:41.824Z,4.2
2016-12-19T13:48:51.621Z,4.16
2016-12-19T13:50:01.152Z,4.18
2016-12-19T13:51:10.690Z,4.28
2016-12-19T13:52:20.479Z,4.15
2016-12-19T13:53:30.329Z,4.15
2016-12-19T13:54:40.126Z,4.12
2016-12-19T13:55:49.929Z,4.22
2016-12-19T13:56:59.105Z,4.2
2016-12-19T13:58:08.604Z,4.23
2016-12-19T13:59:18.419Z,4.15
2016-12-19T14:00:28.258Z,4.18
2016-12-19T14:01:37.180Z,4.04
2016-12-19T14:02:46.664Z,4.04
2016-12-19T14:03:55.859Z,4.05
2016-12-19T14:05:05.649Z,3.98
2016-12-19T14:06:15.297Z,4
2016-12-19T14:07:25.102Z,4.04
2016-12-19T14:08:34.636Z,4.08
2016-12-19T14:09:44.445Z,4.12
2016-12-19T14:10:54.306Z,4.12
2016-12-19T14:12:03.485Z,4.03
2016-12-19T14:13:12.987Z,4.15
2016-12-19T14:14:22.824Z,4.11
2016-12-19T14:16:03.870Z,4.01
2016-12-19T14:17:13.374Z,4.03
2016-12-19T14:18:22.920Z,4
2016-12-19T14:19:32.436Z,3.98
2016-12-19T14:20:42.480Z,3.87
2016-12-19T14:21:51.942Z,3.91
2016-12-19T14:23:01.862Z,3.87
2016-12-19T14:24:11.393Z,3.82
2016-12-19T14:25:21.203Z,3.79
2016-12-19T14:26:30.992Z,3.76
2016-12-19T14:27:40.575Z,3.67
2016-12-19T14:28:50.474Z,3.73
2016-12-19T14:29:59.975Z,3.68
2016-12-19T14:31:09.949Z,3.68
2016-12-19T14:32:19.779Z,3.73
2016-12-19T14:33:29.626Z,3.75
2016-12-19T14:34:39.130Z,3.69
2016-12-19T14:35:49.060Z,3.69
2016-12-19T22:31:44.310Z,0.88
2016-12-19T22:32:54.163Z,0.9
2016-12-19T22:34:03.986Z,0.92
2016-12-19T22:35:13.816Z,0.86
2016-12-19T22:36:23.606Z,0.93
2016-12-19T22:37:33.295Z,0.81
2016-12-19T22:38:43.088Z,0.82
2016-12-19T22:39:52.290Z,0.82
2016-12-19T22:41:01.488Z,0.82
2016-12-19T22:42:11.375Z,0.82
2016-12-19T22:43:21.209Z,0.82
2016-12-19T22:44:30.997Z,0.79
2016-12-19T22:45:40.473Z,0.76
2016-12-19T22:46:50.278Z,0.76
2016-12-19T22:48:00.153Z,0.79
2016-12-19T22:49:09.684Z,0.74
2016-12-19T22:50:19.471Z,0.68
2016-12-19T22:51:29.012Z,0.71
2016-12-19T22:52:37.864Z,0.66
2016-12-19T22:53:47.350Z,0.71
2016-12-19T22:54:56.916Z,0.63
2016-12-19T22:56:06.728Z,0.71
2016-12-19T22:57:16.560Z,0.64
2016-12-19T22:58:26.363Z,0.6
2016-12-19T22:59:36.158Z,0.67
2016-12-19T23:00:45.988Z,0.61
2016-12-19T23:01:55.801Z,0.56
2016-12-19T23:03:05.594Z,0.53
2016-12-19T23:04:15.115Z,0.63
2016-12-19T23:05:24.597Z,0.56
2016-12-19T23:06:34.397Z,0.61
2016-12-19T23:07:44.250Z,0.68
2016-12-19T23:08:53.739Z,0.58
2016-12-19T23:10:03.597Z,0.58
2016-12-19T23:11:13.137Z,0.63
2016-12-19T23:12:22.620Z,0.61
2016-12-19T23:13:32.451Z,0.67
2016-12-19T23:14:41.928Z,0.74
2016-12-19T23:15:51.564Z,0.68
2016-12-19T23:17:01.360Z,0.61
2016-12-19T23:18:10.840Z,0.71
2016-12-19T23:19:20.086Z,0.57
2016-12-19T23:20:29.932Z,0.58
2016-12-19T23:21:39.158Z,0.63
2016-12-19T23:22:48.634Z,0.6
2016-12-19T23:23:58.173Z,0.63
2016-12-19T23:25:07.988Z,0.6
2016-12-19T23:26:17.775Z,0.63
2016-12-19T23:27:27.241Z,0.6
2016-12-19T23:28:36.401Z,0.5